Time,TemperatureF,DewpointF,PressureIn,WindDirection,WindDirectionDegrees,WindSpeedMPH,WindSpeedGustMPH,Humidity,HourlyPrecipIn,Conditions,Clouds,dailyrainin,SolarRadiationWatts/m^2,SoftwareType,DateUTC
2013-10-13 00:21:00,42.0,31.0,-100.00,NW,311,1.0,8.0,64,0.00,,,0.00,0.000000,,2013-10-13 07:21:00,
2013-10-13 00:32:00,42.0,31.0,-100.00,NW,311,1.0,8.0,64,0.00,,,0.00,0.000000,,2013-10-13 07:32:00,
2013-10-13 00:42:00,42.0,31.0,-100.00,NW,311,1.0,8.0,64,0.00,,,0.00,0.000000,,2013-10-13 07:42:00,
2013-10-13 00:52:00,42.0,31.0,-100.00,NW,311,1.0,8.0,64,0.00,,,0.00,0.000000,,2013-10-13 07:52:00,
2013-10-13 01:22:00,41.0,31.0,-100.00,East,97,1.0,5.0,67,0.00,,,0.00,0.000000,,2013-10-13 08:22:00,
2013-10-13 01:32:00,41.0,31.0,-100.00,East,97,1.0,5.0,67,0.00,,,0.00,0.000000,,2013-10-13 08:32:00,
2013-10-13 01:42:00,41.0,31.0,-100.00,East,97,1.0,5.0,67,0.00,,,0.00,0.000000,,2013-10-13 08:42:00,
2013-10-13 01:52:00,41.0,31.0,-100.00,East,97,1.0,5.0,67,0.00,,,0.00,0.000000,,2013-10-13 08:52:00,
2013-10-13 02:22:00,40.0,30.0,-100.00,SW,217,2.0,5.0,67,0.00,,,0.00,0.000000,,2013-10-13 09:22:00,
2013-10-13 02:33:00,40.0,30.0,-100.00,SW,217,2.0,5.0,67,0.00,,,0.00,0.000000,,2013-10-13 09:33:00,
2013-10-13 02:43:00,40.0,30.0,-100.00,SW,217,2.0,5.0,67,0.00,,,0.00,0.000000,,2013-10-13 09:43:00,
2013-10-13 02:53:00,40.0,30.0,-100.00,SW,217,2.0,5.0,67,0.00,,,0.00,0.000000,,2013-10-13 09:53:00,
2013-10-13 03:23:00,40.0,30.0,-100.00,ESE,119,3.0,3.0,67,0.00,,,0.00,0.000000,,2013-10-13 10:23:00,
2013-10-13 03:33:00,40.0,30.0,-100.00,ESE,119,3.0,3.0,67,0.00,,,0.00,0.000000,,2013-10-13 10:33:00,
2013-10-13 03:43:00,40.0,30.0,-100.00,ESE,119,3.0,3.0,67,0.00,,,0.00,0.000000,,2013-10-13 10:43:00,
2013-10-13 03:52:00,40.0,30.0,-100.00,ESE,119,3.0,3.0,67,0.00,,,0.00,0.000000,,2013-10-13 10:52:00,
2013-10-13 04:21:00,40.0,31.0,-100.00,ENE,59,1.0,4.0,71,0.00,,,0.00,0.000000,,2013-10-13 11:21:00,
2013-10-13 04:33:00,40.0,31.0,-100.00,ENE,59,1.0,4.0,71,0.00,,,0.00,0.000000,,2013-10-13 11:33:00,
2013-10-13 04:42:00,40.0,31.0,-100.00,ENE,59,1.0,4.0,71,0.00,,,0.00,0.000000,,2013-10-13 11:42:00,
2013-10-13 04:52:00,40.0,31.0,-100.00,ENE,59,1.0,4.0,71,0.00,,,0.00,0.000000,,2013-10-13 11:52:00,
2013-10-13 05:21:00,38.0,28.0,-100.00,NNE,31,3.0,8.0,67,0.00,,,0.00,0.000000,,2013-10-13 12:21:00,
2013-10-13 05:32:00,38.0,28.0,-100.00,NNE,31,3.0,8.0,67,0.00,,,0.00,0.000000,,2013-10-13 12:32:00,
2013-10-13 05:42:00,38.0,28.0,-100.00,NNE,31,3.0,8.0,67,0.00,,,0.00,0.000000,,2013-10-13 12:42:00,
2013-10-13 05:52:00,38.0,28.0,-100.00,NNE,31,3.0,8.0,67,0.00,,,0.00,0.000000,,2013-10-13 12:52:00,
2013-10-13 06:22:00,42.0,30.0,-100.00,NNE,21,5.0,9.0,63,0.00,,,0.00,0.000000,,2013-10-13 13:22:00,
2013-10-13 06:32:00,42.0,30.0,-100.00,NNE,21,5.0,9.0,63,0.00,,,0.00,0.000000,,2013-10-13 13:32:00,
2013-10-13 06:42:00,42.0,30.0,-100.00,NNE,21,5.0,9.0,63,0.00,,,0.00,0.000000,,2013-10-13 13:42:00,
2013-10-13 06:52:00,42.0,30.0,-100.00,NNE,21,5.0,9.0,63,0.00,,,0.00,0.000000,,2013-10-13 13:52:00,
2013-10-13 07:21:00,40.0,29.0,-100.00,East,80,4.0,6.0,65,0.00,,,0.00,0.000000,,2013-10-13 14:21:00,
2013-10-13 07:32:00,40.0,29.0,-100.00,East,80,4.0,6.0,65,0.00,,,0.00,0.000000,,2013-10-13 14:32:00,
2013-10-13 07:42:00,40.0,29.0,-100.00,East,80,4.0,6.0,65,0.00,,,0.00,0.000000,,2013-10-13 14:42:00,
2013-10-13 07:52:00,40.0,29.0,-100.00,East,80,4.0,6.0,65,0.00,,,0.00,0.000000,,2013-10-13 14:52:00,
2013-10-13 08:22:00,39.0,30.0,-100.00,ENE,78,3.0,6.0,70,0.00,,,0.00,27.000000,,2013-10-13 15:22:00,
2013-10-13 08:33:00,39.0,30.0,-100.00,ENE,78,3.0,6.0,70,0.00,,,0.00,27.000000,,2013-10-13 15:33:00,
2013-10-13 08:43:00,39.0,30.0,-100.00,ENE,78,3.0,6.0,70,0.00,,,0.00,27.000000,,2013-10-13 15:43:00,
2013-10-13 08:54:00,39.0,30.0,-100.00,ENE,78,3.0,6.0,70,0.00,,,0.00,27.000000,,2013-10-13 15:54:00,
2013-10-13 09:24:00,42.0,33.0,-100.00,SW,218,2.0,4.0,69,0.00,,,0.00,173.000000,,2013-10-13 16:24:00,
2013-10-13 09:33:00,42.0,33.0,-100.00,SW,218,2.0,4.0,69,0.00,,,0.00,173.000000,,2013-10-13 16:33:00,
2013-10-13 09:42:00,42.0,33.0,-100.00,SW,218,2.0,4.0,69,0.00,,,0.00,173.000000,,2013-10-13 16:42:00,
2013-10-13 09:54:00,42.0,33.0,-100.00,SW,218,2.0,4.0,69,0.00,,,0.00,173.000000,,2013-10-13 16:54:00,
2013-10-13 10:22:00,46.0,32.0,-100.00,WNW,290,4.0,5.0,58,0.00,,,0.00,335.000000,,2013-10-13 17:22:00,
2013-10-13 10:34:00,46.0,32.0,-100.00,WNW,290,4.0,5.0,58,0.00,,,0.00,335.000000,,2013-10-13 17:34:00,
2013-10-13 10:43:00,46.0,32.0,-100.00,WNW,290,4.0,5.0,58,0.00,,,0.00,335.000000,,2013-10-13 17:43:00,
2013-10-13 10:52:00,46.0,32.0,-100.00,WNW,290,4.0,5.0,58,0.00,,,0.00,335.000000,,2013-10-13 17:52:00,
2013-10-13 11:22:00,51.0,34.0,-100.00,WSW,250,5.0,8.0,53,0.00,,,0.00,470.000000,,2013-10-13 18:22:00,
2013-10-13 11:32:00,51.0,34.0,-100.00,WSW,250,5.0,8.0,53,0.00,,,0.00,470.000000,,2013-10-13 18:32:00,
2013-10-13 11:42:00,51.0,34.0,-100.00,WSW,250,5.0,8.0,53,0.00,,,0.00,470.000000,,2013-10-13 18:42:00,
2013-10-13 11:52:00,51.0,34.0,-100.00,WSW,250,5.0,8.0,53,0.00,,,0.00,470.000000,,2013-10-13 18:52:00,
2013-10-13 12:22:00,54.0,33.0,-100.00,WSW,243,8.0,10.0,45,0.00,,,0.00,566.000000,,2013-10-13 19:22:00,
2013-10-13 12:32:00,54.0,33.0,-100.00,WSW,243,8.0,10.0,45,0.00,,,0.00,566.000000,,2013-10-13 19:32:00,
2013-10-13 12:42:00,54.0,33.0,-100.00,WSW,243,8.0,10.0,45,0.00,,,0.00,566.000000,,2013-10-13 19:42:00,
2013-10-13 12:52:00,54.0,33.0,-100.00,WSW,243,8.0,10.0,45,0.00,,,0.00,566.000000,,2013-10-13 19:52:00,
2013-10-13 13:22:00,57.0,32.0,-100.00,WSW,254,12.0,15.0,39,0.00,,,0.00,630.000000,,2013-10-13 20:22:00,
2013-10-13 13:32:00,57.0,32.0,-100.00,WSW,254,12.0,15.0,39,0.00,,,0.00,630.000000,,2013-10-13 20:32:00,
2013-10-13 13:43:00,57.0,32.0,-100.00,WSW,254,12.0,15.0,39,0.00,,,0.00,630.000000,,2013-10-13 20:43:00,
2013-10-13 13:52:00,57.0,32.0,-100.00,WSW,254,12.0,15.0,39,0.00,,,0.00,630.000000,,2013-10-13 20:52:00,
2013-10-13 14:21:00,58.0,32.0,-100.00,WSW,255,8.0,15.0,37,0.00,,,0.00,449.000000,,2013-10-13 21:21:00,
2013-10-13 14:34:00,58.0,32.0,-100.00,WSW,255,8.0,15.0,37,0.00,,,0.00,449.000000,,2013-10-13 21:34:00,
2013-10-13 14:44:00,58.0,32.0,-100.00,WSW,255,8.0,15.0,37,0.00,,,0.00,449.000000,,2013-10-13 21:44:00,
2013-10-13 14:55:00,58.0,32.0,-100.00,WSW,255,8.0,15.0,37,0.00,,,0.00,449.000000,,2013-10-13 21:55:00,
2013-10-13 15:24:00,61.0,31.0,-100.00,West,281,7.0,13.0,32,0.00,,,0.00,459.000000,,2013-10-13 22:24:00,
2013-10-13 15:32:00,61.0,31.0,-100.00,West,281,7.0,13.0,32,0.00,,,0.00,459.000000,,2013-10-13 22:32:00,
2013-10-13 15:43:00,61.0,31.0,-100.00,West,281,7.0,13.0,32,0.00,,,0.00,459.000000,,2013-10-13 22:43:00,
2013-10-13 15:53:00,61.0,31.0,-100.00,West,281,7.0,13.0,32,0.00,,,0.00,459.000000,,2013-10-13 22:53:00,
2013-10-13 16:22:00,59.0,28.0,-100.00,NNW,341,11.0,17.0,31,0.00,,,0.00,401.000000,,2013-10-13 23:22:00,
2013-10-13 16:33:00,59.0,28.0,-100.00,NNW,341,11.0,17.0,31,0.00,,,0.00,401.000000,,2013-10-13 23:33:00,
2013-10-13 16:42:00,59.0,28.0,-100.00,NNW,341,11.0,17.0,31,0.00,,,0.00,401.000000,,2013-10-13 23:42:00,
2013-10-13 16:52:00,59.0,28.0,-100.00,NNW,341,11.0,17.0,31,0.00,,,0.00,401.000000,,2013-10-13 23:52:00,
2013-10-13 17:21:00,58.0,28.0,-100.00,North,352,9.0,16.0,31,0.00,,,0.00,243.000000,,2013-10-14 00:21:00,
2013-10-13 17:32:00,58.0,28.0,-100.00,North,352,9.0,16.0,31,0.00,,,0.00,243.000000,,2013-10-14 00:32:00,
2013-10-13 17:42:00,58.0,28.0,-100.00,North,352,9.0,16.0,31,0.00,,,0.00,243.000000,,2013-10-14 00:42:00,
2013-10-13 17:52:00,58.0,28.0,-100.00,North,352,9.0,16.0,31,0.00,,,0.00,243.000000,,2013-10-14 00:52:00,
2013-10-13 18:21:00,55.0,27.0,-100.00,North,356,6.0,11.0,34,0.00,,,0.00,83.000000,,2013-10-14 01:21:00,
2013-10-13 18:32:00,55.0,27.0,-100.00,North,356,6.0,11.0,34,0.00,,,0.00,83.000000,,2013-10-14 01:32:00,
2013-10-13 18:42:00,55.0,27.0,-100.00,North,356,6.0,11.0,34,0.00,,,0.00,83.000000,,2013-10-14 01:42:00,
2013-10-13 18:52:00,55.0,27.0,-100.00,North,356,6.0,11.0,34,0.00,,,0.00,83.000000,,2013-10-14 01:52:00,
2013-10-13 19:21:00,53.0,27.0,-100.00,NNE,12,8.0,12.0,37,0.00,,,0.00,3.000000,,2013-10-14 02:21:00,
2013-10-13 19:32:00,53.0,27.0,-100.00,NNE,12,8.0,12.0,37,0.00,,,0.00,3.000000,,2013-10-14 02:32:00,
2013-10-13 19:42:00,53.0,27.0,-100.00,NNE,12,8.0,12.0,37,0.00,,,0.00,3.000000,,2013-10-14 02:42:00,
2013-10-13 19:52:00,53.0,27.0,-100.00,NNE,12,8.0,12.0,37,0.00,,,0.00,3.000000,,2013-10-14 02:52:00,
2013-10-13 20:22:00,52.0,28.0,-100.00,NNE,13,8.0,14.0,39,0.00,,,0.00,0.000000,,2013-10-14 03:22:00,
2013-10-13 20:33:00,52.0,28.0,-100.00,NNE,13,8.0,14.0,39,0.00,,,0.00,0.000000,,2013-10-14 03:33:00,
2013-10-13 20:44:00,52.0,28.0,-100.00,NNE,13,8.0,14.0,39,0.00,,,0.00,0.000000,,2013-10-14 03:44:00,
2013-10-13 20:55:00,52.0,28.0,-100.00,NNE,13,8.0,14.0,39,0.00,,,0.00,0.000000,,2013-10-14 03:55:00,
2013-10-13 21:24:00,51.0,28.0,-100.00,NNE,29,10.0,14.0,40,0.00,,,0.00,0.000000,,2013-10-14 04:24:00,
2013-10-13 21:34:00,51.0,28.0,-100.00,NNE,29,10.0,14.0,40,0.00,,,0.00,0.000000,,2013-10-14 04:34:00,
2013-10-13 21:43:00,51.0,28.0,-100.00,NNE,29,10.0,14.0,40,0.00,,,0.00,0.000000,,2013-10-14 04:43:00,
2013-10-13 21:54:00,51.0,28.0,-100.00,NNE,29,10.0,14.0,40,0.00,,,0.00,0.000000,,2013-10-14 04:54:00,
2013-10-13 22:23:00,47.0,25.0,-100.00,WNW,286,5.0,15.0,41,0.00,,,0.00,0.000000,,2013-10-14 05:23:00,
2013-10-13 22:34:00,47.0,25.0,-100.00,WNW,286,5.0,15.0,41,0.00,,,0.00,0.000000,,2013-10-14 05:34:00,
2013-10-13 22:43:00,47.0,25.0,-100.00,WNW,286,5.0,15.0,41,0.00,,,0.00,0.000000,,2013-10-14 05:43:00,
2013-10-13 22:52:00,47.0,25.0,-100.00,WNW,286,5.0,15.0,41,0.00,,,0.00,0.000000,,2013-10-14 05:52:00,
2013-10-13 23:22:00,49.0,28.0,-100.00,North,5,11.0,17.0,44,0.00,,,0.00,0.000000,,2013-10-14 06:22:00,
2013-10-13 23:32:00,49.0,28.0,-100.00,North,5,11.0,17.0,44,0.00,,,0.00,0.000000,,2013-10-14 06:32:00,
2013-10-13 23:42:00,49.0,28.0,-100.00,North,5,11.0,17.0,44,0.00,,,0.00,0.000000,,2013-10-14 06:42:00,
2013-10-13 23:52:00,49.0,28.0,-100.00,North,5,11.0,17.0,44,0.00,,,0.00,0.000000,,2013-10-14 06:52:00,